Time,TemperatureF,DewpointF,PressureIn,WindDirection,WindDirectionDegrees,WindSpeedMPH,WindSpeedGustMPH,Humidity,HourlyPrecipIn,Conditions,Clouds,dailyrainin,SoftwareType,DateUTC
2013-01-28 00:00:00,34.4,34.4,30.07,SSW,192,6.0,17.0,100,0.01,RA,SKC,0.00,WeatherDisplay:10.37,2013-01-28 05:00:00,
2013-01-28 00:10:00,34.8,34.5,30.07,SSW,195,10.0,24.0,99,0.00,CLR,SKC,0.00,WeatherDisplay:10.37,2013-01-28 05:10:00,
2013-01-28 00:20:00,35.1,35.1,30.07,SSW,198,9.0,23.0,100,0.01,RA,SKC,0.01,WeatherDisplay:10.37,2013-01-28 05:20:00,
2013-01-28 00:30:00,35.1,35.1,30.06,SSW,196,9.0,22.0,100,0.01,RA,SKC,0.02,WeatherDisplay:10.37,2013-01-28 05:30:00,
2013-01-28 00:40:00,35.2,35.2,30.06,SSW,199,7.0,20.0,100,0.00,CLR,SKC,0.02,WeatherDisplay:10.37,2013-01-28 05:40:00,
2013-01-28 00:50:00,35.4,35.4,30.06,SSW,196,5.0,15.0,100,0.00,CLR,SKC,0.02,WeatherDisplay:10.37,2013-01-28 05:50:00,
2013-01-28 01:00:00,35.4,35.4,30.06,SSW,199,1.0,14.0,100,0.01,RA,SKC,0.03,WeatherDisplay:10.37,2013-01-28 06:00:00,
2013-01-28 01:10:00,35.8,35.8,30.08,SW,220,5.0,18.0,100,0.01,RA,SKC,0.04,WeatherDisplay:10.37,2013-01-28 06:10:00,
2013-01-28 01:20:00,35.6,35.6,30.07,SSW,201,7.0,15.0,100,0.01,RA,SKC,0.05,WeatherDisplay:10.37,2013-01-28 06:20:00,
2013-01-28 01:30:00,35.7,35.7,30.06,SW,214,5.0,15.0,100,0.00,CLR,SKC,0.05,WeatherDisplay:10.37,2013-01-28 06:30:00,
2013-01-28 01:40:00,35.7,35.7,30.06,SSW,211,7.0,17.0,100,0.00,CLR,SKC,0.05,WeatherDisplay:10.37,2013-01-28 06:40:00,
2013-01-28 01:50:00,35.7,35.7,30.05,SSW,204,7.0,17.0,100,0.00,CLR,SKC,0.05,WeatherDisplay:10.37,2013-01-28 06:50:00,
2013-01-28 02:00:00,36.4,36.4,30.05,SSW,210,7.0,20.0,100,0.00,CLR,SKC,0.05,WeatherDisplay:10.37,2013-01-28 07:00:00,
2013-01-28 02:10:00,36.3,36.3,30.04,SSW,211,3.0,18.0,100,0.00,CLR,SKC,0.05,WeatherDisplay:10.37,2013-01-28 07:10:00,
2013-01-28 02:20:00,36.5,36.5,30.03,SW,216,7.0,20.0,100,0.00,CLR,SKC,0.05,WeatherDisplay:10.37,2013-01-28 07:20:00,
2013-01-28 02:30:00,36.4,36.4,30.03,SW,217,10.0,16.0,100,0.00,CLR,SKC,0.05,WeatherDisplay:10.37,2013-01-28 07:30:00,
2013-01-28 02:40:00,37.4,37.4,30.02,SSW,208,8.0,21.0,100,0.00,CLR,SKC,0.05,WeatherDisplay:10.37,2013-01-28 07:40:00,
2013-01-28 02:49:00,37.5,37.5,30.02,SW,219,9.0,21.0,100,0.00,CLR,SKC,0.05,WeatherDisplay:10.37,2013-01-28 07:49:00,
2013-01-28 02:59:00,37.4,37.4,30.00,SSW,212,9.0,20.0,100,0.00,CLR,SKC,0.05,WeatherDisplay:10.37,2013-01-28 07:59:00,
2013-01-28 03:09:00,38.3,38.3,30.00,SW,223,9.0,19.0,100,0.00,CLR,SKC,0.05,WeatherDisplay:10.37,2013-01-28 08:09:00,
2013-01-28 03:19:00,38.7,38.7,30.00,SW,223,9.0,17.0,100,0.00,CLR,SKC,0.05,WeatherDisplay:10.37,2013-01-28 08:19:00,
2013-01-28 03:30:00,38.6,38.6,29.99,SW,224,9.0,21.0,100,0.00,CLR,SKC,0.05,WeatherDisplay:10.37,2013-01-28 08:30:00,
2013-01-28 03:39:00,39.3,39.3,29.98,SW,223,6.0,20.0,100,0.00,CLR,SKC,0.05,WeatherDisplay:10.37,2013-01-28 08:39:00,
2013-01-28 03:49:00,39.5,39.5,29.99,SW,225,5.0,17.0,100,0.00,CLR,SKC,0.05,WeatherDisplay:10.37,2013-01-28 08:49:00,
2013-01-28 03:59:00,39.7,39.7,29.99,SW,228,7.0,20.0,100,0.00,CLR,SKC,0.05,WeatherDisplay:10.37,2013-01-28 08:59:00,
2013-01-28 04:09:00,39.6,39.6,29.99,SW,233,10.0,23.0,100,0.00,CLR,SKC,0.05,WeatherDisplay:10.37,2013-01-28 09:09:00,
2013-01-28 04:19:00,40.0,40.0,29.98,SW,236,9.0,23.0,100,0.00,CLR,SKC,0.05,WeatherDisplay:10.37,2013-01-28 09:19:00,
2013-01-28 04:29:00,39.2,39.2,29.98,SW,229,8.0,25.0,100,0.00,CLR,SKC,0.05,WeatherDisplay:10.37,2013-01-28 09:29:00,
2013-01-28 04:39:00,39.7,39.7,29.97,SW,225,7.0,21.0,100,0.00,CLR,SKC,0.05,WeatherDisplay:10.37,2013-01-28 09:39:00,
2013-01-28 04:49:00,40.3,40.3,29.97,SW,229,8.0,18.0,100,0.00,CLR,SKC,0.05,WeatherDisplay:10.37,2013-01-28 09:49:00,
2013-01-28 04:59:00,40.6,40.1,29.98,SW,233,7.0,21.0,98,0.00,CLR,SKC,0.05,WeatherDisplay:10.37,2013-01-28 09:59:00,
2013-01-28 05:09:00,40.7,40.1,29.97,SW,230,6.0,14.0,98,0.00,CLR,SKC,0.05,WeatherDisplay:10.37,2013-01-28 10:09:00,
2013-01-28 05:19:00,40.9,40.4,29.97,SW,233,9.0,16.0,98,0.00,CLR,SKC,0.05,WeatherDisplay:10.37,2013-01-28 10:19:00,
2013-01-28 05:29:00,41.5,40.9,29.96,SW,232,8.0,17.0,98,0.00,CLR,SKC,0.05,WeatherDisplay:10.37,2013-01-28 10:29:00,
2013-01-28 05:39:00,41.8,41.3,29.96,SW,231,7.0,18.0,98,0.00,CLR,SKC,0.05,WeatherDisplay:10.37,2013-01-28 10:39:00,
2013-01-28 05:49:00,41.9,41.1,29.95,SW,236,9.0,18.0,97,0.00,CLR,SKC,0.05,WeatherDisplay:10.37,2013-01-28 10:49:00,
2013-01-28 05:59:00,42.4,41.6,29.95,WSW,238,10.0,22.0,97,0.00,CLR,SKC,0.05,WeatherDisplay:10.37,2013-01-28 10:59:00,
2013-01-28 06:09:00,42.4,41.3,29.95,WSW,240,10.0,22.0,96,0.00,CLR,SKC,0.05,WeatherDisplay:10.37,2013-01-28 11:09:00,
2013-01-28 06:19:00,42.9,41.9,29.95,WSW,240,10.0,21.0,96,0.00,CLR,SKC,0.05,WeatherDisplay:10.37,2013-01-28 11:19:00,
2013-01-28 06:29:00,42.6,41.8,29.95,WSW,239,7.0,18.0,97,0.00,CLR,SKC,0.05,WeatherDisplay:10.37,2013-01-28 11:29:00,
2013-01-28 06:40:00,43.2,42.7,29.94,WSW,238,10.0,20.0,98,0.01,RA,SKC,0.06,WeatherDisplay:10.37,2013-01-28 11:40:00,
2013-01-28 06:50:00,42.8,42.3,29.94,WSW,237,10.0,22.0,98,0.00,CLR,SKC,0.06,WeatherDisplay:10.37,2013-01-28 11:50:00,
2013-01-28 07:00:00,42.4,41.8,29.94,SW,234,13.0,20.0,98,0.00,CLR,SKC,0.06,WeatherDisplay:10.37,2013-01-28 12:00:00,
2013-01-28 07:10:00,42.5,42.0,29.95,WSW,245,9.0,18.0,98,0.00,CLR,SKC,0.06,WeatherDisplay:10.37,2013-01-28 12:10:00,
2013-01-28 07:20:00,42.8,42.6,29.94,SW,235,14.0,20.0,99,0.01,RA,SKC,0.07,WeatherDisplay:10.37,2013-01-28 12:20:00,
2013-01-28 07:30:00,43.2,42.7,29.94,WSW,242,10.0,21.0,98,0.01,RA,SKC,0.08,WeatherDisplay:10.37,2013-01-28 12:30:00,
2013-01-28 07:40:00,43.3,43.0,29.95,WSW,243,8.0,20.0,99,0.00,CLR,SKC,0.08,WeatherDisplay:10.37,2013-01-28 12:40:00,
2013-01-28 07:50:00,43.6,43.1,29.94,WSW,246,8.0,19.0,98,0.00,CLR,SKC,0.08,WeatherDisplay:10.37,2013-01-28 12:50:00,
2013-01-28 08:00:00,43.7,43.2,29.94,WSW,239,14.0,23.0,98,0.00,CLR,SKC,0.08,WeatherDisplay:10.37,2013-01-28 13:00:00,
2013-01-28 08:10:00,43.4,42.9,29.94,WSW,241,10.0,19.0,98,0.00,CLR,SKC,0.08,WeatherDisplay:10.37,2013-01-28 13:10:00,
2013-01-28 08:20:00,43.9,43.4,29.94,SW,235,10.0,24.0,98,0.00,CLR,SKC,0.08,WeatherDisplay:10.37,2013-01-28 13:20:00,
2013-01-28 08:30:00,43.7,43.1,29.94,WSW,238,9.0,22.0,98,0.00,CLR,SKC,0.08,WeatherDisplay:10.37,2013-01-28 13:30:00,
2013-01-28 08:40:00,43.7,42.9,29.94,WSW,237,10.0,22.0,97,0.00,CLR,SKC,0.08,WeatherDisplay:10.37,2013-01-28 13:40:00,
2013-01-28 08:50:00,44.0,43.2,29.94,WSW,241,13.0,22.0,97,0.00,CLR,SKC,0.08,WeatherDisplay:10.37,2013-01-28 13:50:00,
2013-01-28 09:00:00,44.2,43.7,29.94,WSW,238,10.0,22.0,98,0.00,CLR,SKC,0.08,WeatherDisplay:10.37,2013-01-28 14:00:00,
2013-01-28 09:10:00,44.9,44.1,29.94,WSW,244,9.0,22.0,97,0.00,CLR,SKC,0.08,WeatherDisplay:10.37,2013-01-28 14:10:00,
2013-01-28 09:20:00,44.8,44.0,29.93,SW,235,13.0,22.0,97,0.00,CLR,SKC,0.08,WeatherDisplay:10.37,2013-01-28 14:20:00,
2013-01-28 09:30:00,45.3,44.5,29.94,WSW,238,9.0,18.0,97,0.00,CLR,SKC,0.08,WeatherDisplay:10.37,2013-01-28 14:30:00,
2013-01-28 09:40:00,45.7,44.9,29.94,WSW,242,9.0,21.0,97,0.00,CLR,SKC,0.08,WeatherDisplay:10.37,2013-01-28 14:40:00,
2013-01-28 09:50:00,45.3,44.5,29.94,WSW,239,8.0,24.0,97,0.00,CLR,SKC,0.08,WeatherDisplay:10.37,2013-01-28 14:50:00,
2013-01-28 10:00:00,45.4,44.3,29.93,SW,236,8.0,21.0,96,0.00,CLR,SKC,0.08,WeatherDisplay:10.37,2013-01-28 15:00:00,
2013-01-28 10:10:00,45.6,44.2,29.93,WSW,241,9.0,20.0,95,0.00,CLR,SKC,0.08,WeatherDisplay:10.37,2013-01-28 15:10:00,
2013-01-28 10:20:00,44.9,43.6,29.94,WSW,241,9.0,20.0,95,0.00,CLR,SKC,0.08,WeatherDisplay:10.37,2013-01-28 15:20:00,
2013-01-28 10:30:00,45.3,44.3,29.93,WSW,241,8.0,22.0,96,0.00,CLR,SKC,0.08,WeatherDisplay:10.37,2013-01-28 15:30:00,
2013-01-28 10:40:00,46.0,44.6,29.94,WSW,245,9.0,18.0,95,0.00,CLR,SKC,0.08,WeatherDisplay:10.37,2013-01-28 15:40:00,
2013-01-28 10:50:00,47.0,45.4,29.94,WSW,246,9.0,20.0,94,0.00,CLR,SKC,0.08,WeatherDisplay:10.37,2013-01-28 15:50:00,
2013-01-28 11:00:00,46.6,45.0,29.94,WSW,247,10.0,22.0,94,0.00,CLR,SKC,0.08,WeatherDisplay:10.37,2013-01-28 16:00:00,
2013-01-28 11:10:00,47.1,45.2,29.94,WSW,245,10.0,23.0,93,0.00,CLR,SKC,0.08,WeatherDisplay:10.37,2013-01-28 16:10:00,
2013-01-28 11:20:00,47.0,45.4,29.95,WSW,243,8.0,17.0,94,0.00,CLR,SKC,0.08,WeatherDisplay:10.37,2013-01-28 16:20:00,
2013-01-28 11:30:00,48.4,46.4,29.94,WSW,245,9.0,20.0,93,0.00,CLR,SKC,0.08,WeatherDisplay:10.37,2013-01-28 16:30:00,
2013-01-28 11:40:00,48.0,46.0,29.95,WSW,250,10.0,24.0,93,0.00,CLR,SKC,0.08,WeatherDisplay:10.37,2013-01-28 16:40:00,
2013-01-28 11:50:00,49.2,47.0,29.94,WSW,251,9.0,17.0,92,0.00,CLR,SKC,0.08,WeatherDisplay:10.37,2013-01-28 16:50:00,
2013-01-28 12:00:00,49.1,47.2,29.94,WSW,248,9.0,20.0,93,0.00,CLR,SKC,0.08,WeatherDisplay:10.37,2013-01-28 17:00:00,
2013-01-28 12:10:00,48.8,47.2,29.94,WSW,252,8.0,21.0,94,0.00,CLR,SKC,0.08,WeatherDisplay:10.37,2013-01-28 17:10:00,
2013-01-28 12:20:00,48.4,46.2,29.93,WSW,255,7.0,21.0,92,0.00,CLR,SKC,0.08,WeatherDisplay:10.37,2013-01-28 17:20:00,
2013-01-28 12:30:00,48.5,46.6,29.93,WSW,249,10.0,22.0,93,0.00,CLR,SKC,0.08,WeatherDisplay:10.37,2013-01-28 17:30:00,
2013-01-28 12:40:00,49.7,47.5,29.92,WSW,252,10.0,27.0,92,0.00,CLR,SKC,0.08,WeatherDisplay:10.37,2013-01-28 17:40:00,
2013-01-28 12:50:00,49.4,46.9,29.92,WSW,251,9.0,29.0,91,0.00,CLR,SKC,0.08,WeatherDisplay:10.37,2013-01-28 17:50:00,
2013-01-28 13:00:00,49.8,47.6,29.92,WSW,254,12.0,21.0,92,0.00,CLR,SKC,0.08,WeatherDisplay:10.37,2013-01-28 18:00:00,
2013-01-28 13:10:00,49.1,47.1,29.92,WSW,255,12.0,23.0,93,0.00,CLR,SKC,0.08,WeatherDisplay:10.37,2013-01-28 18:10:00,
2013-01-28 13:20:00,49.5,47.8,29.92,WSW,257,8.0,22.0,94,0.00,CLR,SKC,0.08,WeatherDisplay:10.37,2013-01-28 18:20:00,
2013-01-28 13:30:00,49.6,47.6,29.91,WSW,256,10.0,17.0,93,0.00,CLR,SKC,0.08,WeatherDisplay:10.37,2013-01-28 18:30:00,
2013-01-28 13:40:00,49.8,47.9,29.91,WSW,257,14.0,21.0,93,0.00,CLR,SKC,0.08,WeatherDisplay:10.37,2013-01-28 18:40:00,
2013-01-28 13:50:00,50.0,48.1,29.91,WSW,257,9.0,24.0,93,0.00,CLR,SKC,0.08,WeatherDisplay:10.37,2013-01-28 18:50:00,
2013-01-28 14:00:00,50.3,48.3,29.91,WSW,253,10.0,20.0,93,0.00,CLR,SKC,0.08,WeatherDisplay:10.37,2013-01-28 19:00:00,
2013-01-28 14:10:00,51.1,49.4,29.90,West,259,10.0,18.0,94,0.00,CLR,SKC,0.08,WeatherDisplay:10.37,2013-01-28 19:10:00,
2013-01-28 14:20:00,50.3,48.4,29.90,WSW,256,9.0,22.0,93,0.00,CLR,SKC,0.08,WeatherDisplay:10.37,2013-01-28 19:20:00,
2013-01-28 14:29:00,50.8,49.1,29.90,WSW,256,9.0,20.0,94,0.00,CLR,SKC,0.08,WeatherDisplay:10.37,2013-01-28 19:29:00,
2013-01-28 14:39:00,50.2,48.5,29.90,WSW,257,12.0,22.0,94,0.00,CLR,SKC,0.08,WeatherDisplay:10.37,2013-01-28 19:39:00,
2013-01-28 14:49:00,50.1,48.2,29.90,WSW,257,8.0,20.0,93,0.00,CLR,SKC,0.08,WeatherDisplay:10.37,2013-01-28 19:49:00,
2013-01-28 14:59:00,50.4,48.8,29.91,West,263,10.0,19.0,94,0.00,CLR,SKC,0.08,WeatherDisplay:10.37,2013-01-28 19:59:00,
2013-01-28 15:09:00,49.8,48.1,29.91,WSW,258,8.0,21.0,94,0.00,CLR,SKC,0.08,WeatherDisplay:10.37,2013-01-28 20:09:00,
2013-01-28 15:19:00,51.2,49.5,29.91,West,264,10.0,20.0,94,0.00,CLR,SKC,0.08,WeatherDisplay:10.37,2013-01-28 20:19:00,
2013-01-28 15:29:00,49.9,48.6,29.91,West,259,9.0,15.0,95,0.00,CLR,SKC,0.08,WeatherDisplay:10.37,2013-01-28 20:29:00,
2013-01-28 15:39:00,50.9,49.5,29.91,West,259,8.0,20.0,95,0.00,CLR,SKC,0.08,WeatherDisplay:10.37,2013-01-28 20:39:00,
2013-01-28 15:49:00,49.8,48.4,29.92,West,263,12.0,18.0,95,0.00,CLR,SKC,0.08,WeatherDisplay:10.37,2013-01-28 20:49:00,
2013-01-28 15:59:00,50.6,49.5,29.92,West,262,7.0,15.0,96,0.00,CLR,SKC,0.08,WeatherDisplay:10.37,2013-01-28 20:59:00,
2013-01-28 16:09:00,49.8,48.4,29.93,West,260,10.0,17.0,95,0.00,CLR,SKC,0.08,WeatherDisplay:10.37,2013-01-28 21:09:00,
2013-01-28 16:19:00,50.6,49.5,29.93,West,259,9.0,15.0,96,0.00,CLR,SKC,0.08,WeatherDisplay:10.37,2013-01-28 21:19:00,
2013-01-28 16:29:00,49.9,49.1,29.93,WSW,249,0.0,15.0,97,0.00,CLR,SKC,0.08,WeatherDisplay:10.37,2013-01-28 21:29:00,
2013-01-28 16:39:00,50.3,49.7,29.93,WSW,247,2.0,14.0,98,0.00,CLR,SKC,0.08,WeatherDisplay:10.37,2013-01-28 21:39:00,
2013-01-28 16:49:00,49.9,48.8,29.93,WSW,257,1.0,12.0,96,0.00,CLR,SKC,0.08,WeatherDisplay:10.37,2013-01-28 21:49:00,
2013-01-28 16:59:00,50.1,49.3,29.94,WSW,253,6.0,13.0,97,0.00,CLR,SKC,0.08,WeatherDisplay:10.37,2013-01-28 21:59:00,
2013-01-28 17:09:00,50.4,49.9,29.94,WSW,258,7.0,13.0,98,0.00,CLR,SKC,0.08,WeatherDisplay:10.37,2013-01-28 22:09:00,
2013-01-28 17:19:00,49.7,49.2,29.94,WSW,256,7.0,14.0,98,0.00,CLR,SKC,0.08,WeatherDisplay:10.37,2013-01-28 22:19:00,
2013-01-28 17:29:00,49.6,49.3,29.95,WSW,256,9.0,17.0,99,0.00,CLR,SKC,0.08,WeatherDisplay:10.37,2013-01-28 22:29:00,
2013-01-28 17:39:00,50.0,50.0,29.95,WSW,252,2.0,13.0,100,0.00,CLR,SKC,0.08,WeatherDisplay:10.37,2013-01-28 22:39:00,
2013-01-28 17:49:00,49.5,49.3,29.95,WSW,248,1.0,14.0,99,0.00,CLR,SKC,0.08,WeatherDisplay:10.37,2013-01-28 22:49:00,
2013-01-28 17:59:00,50.2,50.0,29.95,WSW,257,5.0,14.0,99,0.00,CLR,SKC,0.08,WeatherDisplay:10.37,2013-01-28 22:59:00,
2013-01-28 18:09:00,49.9,49.9,29.95,WSW,251,7.0,14.0,100,0.00,CLR,SKC,0.08,WeatherDisplay:10.37,2013-01-28 23:09:00,
2013-01-28 18:19:00,49.5,49.5,29.95,WSW,251,1.0,14.0,100,0.00,CLR,SKC,0.08,WeatherDisplay:10.37,2013-01-28 23:19:00,
2013-01-28 18:29:00,49.8,49.8,29.96,SW,220,0.0,11.0,100,0.00,CLR,SKC,0.08,WeatherDisplay:10.37,2013-01-28 23:29:00,
2013-01-28 18:40:00,49.9,49.9,29.96,WSW,244,0.0,12.0,100,0.00,CLR,SKC,0.08,WeatherDisplay:10.37,2013-01-28 23:40:00,
2013-01-28 18:50:00,49.4,49.4,29.96,WSW,242,5.0,14.0,100,0.00,CLR,SKC,0.08,WeatherDisplay:10.37,2013-01-28 23:50:00,
2013-01-28 19:00:00,49.2,49.2,29.97,WSW,252,7.0,13.0,100,0.00,CLR,SKC,0.08,WeatherDisplay:10.37,2013-01-29 00:00:00,
2013-01-28 19:10:00,49.0,49.0,29.97,West,260,7.0,12.0,100,0.00,CLR,SKC,0.08,WeatherDisplay:10.37,2013-01-29 00:10:00,
2013-01-28 19:20:00,49.0,49.0,29.97,SW,219,0.0,10.0,100,0.00,CLR,SKC,0.08,WeatherDisplay:10.37,2013-01-29 00:20:00,
2013-01-28 19:30:00,49.5,49.5,29.97,WSW,247,2.0,13.0,100,0.00,CLR,SKC,0.08,WeatherDisplay:10.37,2013-01-29 00:30:00,
2013-01-28 19:40:00,49.4,49.4,29.97,WSW,243,5.0,12.0,100,0.00,CLR,SKC,0.08,WeatherDisplay:10.37,2013-01-29 00:40:00,
2013-01-28 19:50:00,49.7,49.7,29.97,WSW,239,1.0,9.0,100,0.00,CLR,SKC,0.08,WeatherDisplay:10.37,2013-01-29 00:50:00,
2013-01-28 20:00:00,49.0,49.0,29.97,WSW,254,1.0,13.0,100,0.00,CLR,SKC,0.08,WeatherDisplay:10.37,2013-01-29 01:00:00,
2013-01-28 20:10:00,49.3,49.3,29.97,WSW,251,2.0,10.0,100,0.00,CLR,SKC,0.08,WeatherDisplay:10.37,2013-01-29 01:10:00,
2013-01-28 20:20:00,49.6,49.6,29.97,WSW,248,1.0,10.0,100,0.00,CLR,SKC,0.08,WeatherDisplay:10.37,2013-01-29 01:20:00,
2013-01-28 20:30:00,49.6,49.6,29.97,SW,226,1.0,10.0,100,0.00,CLR,SKC,0.08,WeatherDisplay:10.37,2013-01-29 01:30:00,
2013-01-28 20:40:00,49.6,49.6,29.97,SW,228,3.0,13.0,100,0.00,CLR,SKC,0.08,WeatherDisplay:10.37,2013-01-29 01:40:00,
2013-01-28 20:50:00,49.4,49.4,29.97,WSW,245,6.0,12.0,100,0.00,CLR,SKC,0.08,WeatherDisplay:10.37,2013-01-29 01:50:00,
2013-01-28 21:00:00,49.3,49.3,29.97,SW,232,2.0,10.0,100,0.00,CLR,SKC,0.08,WeatherDisplay:10.37,2013-01-29 02:00:00,
2013-01-28 21:10:00,49.6,49.6,29.97,SW,231,1.0,12.0,100,0.00,CLR,SKC,0.08,WeatherDisplay:10.37,2013-01-29 02:10:00,
2013-01-28 21:20:00,50.1,50.1,29.97,WSW,254,5.0,13.0,100,0.00,CLR,SKC,0.08,WeatherDisplay:10.37,2013-01-29 02:20:00,
2013-01-28 21:30:00,49.2,49.2,29.98,WSW,252,5.0,12.0,100,0.00,CLR,SKC,0.08,WeatherDisplay:10.37,2013-01-29 02:30:00,
2013-01-28 21:40:00,49.8,49.8,29.98,SW,236,1.0,12.0,100,0.00,CLR,SKC,0.08,WeatherDisplay:10.37,2013-01-29 02:40:00,
2013-01-28 21:50:00,49.8,49.8,29.98,WSW,255,0.0,9.0,100,0.00,CLR,SKC,0.08,WeatherDisplay:10.37,2013-01-29 02:50:00,
2013-01-28 22:00:00,50.8,50.8,29.98,SW,228,0.0,10.0,100,0.00,CLR,SKC,0.08,WeatherDisplay:10.37,2013-01-29 03:00:00,
2013-01-28 22:10:00,49.5,49.5,29.98,WSW,251,2.0,12.0,100,0.00,CLR,SKC,0.08,WeatherDisplay:10.37,2013-01-29 03:10:00,
2013-01-28 22:20:00,49.8,49.8,29.98,SW,232,1.0,8.0,100,0.00,CLR,SKC,0.08,WeatherDisplay:10.37,2013-01-29 03:20:00,
2013-01-28 22:30:00,49.8,49.8,29.98,SSW,201,0.0,12.0,100,0.00,CLR,SKC,0.08,WeatherDisplay:10.37,2013-01-29 03:30:00,
2013-01-28 22:40:00,50.0,49.7,29.98,WSW,242,0.0,12.0,99,0.00,CLR,SKC,0.08,WeatherDisplay:10.37,2013-01-29 03:40:00,
2013-01-28 22:50:00,49.8,49.2,29.98,WSW,255,0.0,9.0,98,0.00,CLR,SKC,0.08,WeatherDisplay:10.37,2013-01-29 03:50:00,
2013-01-28 23:00:00,50.0,50.0,29.98,SW,215,0.0,8.0,100,0.00,CLR,SKC,0.08,WeatherDisplay:10.37,2013-01-29 04:00:00,
2013-01-28 23:10:00,49.7,49.5,29.98,WSW,247,1.0,9.0,99,0.00,CLR,SKC,0.08,WeatherDisplay:10.37,2013-01-29 04:10:00,
2013-01-28 23:20:00,49.7,49.7,29.98,West,271,0.0,0.0,100,0.00,CLR,SKC,0.08,WeatherDisplay:10.37,2013-01-29 04:20:00,
2013-01-28 23:30:00,49.9,49.9,29.98,West,271,0.0,0.0,100,0.00,CLR,SKC,0.08,WeatherDisplay:10.37,2013-01-29 04:30:00,
2013-01-28 23:40:00,48.8,48.5,29.98,West,271,0.0,0.0,99,0.00,CLR,SKC,0.08,WeatherDisplay:10.37,2013-01-29 04:40:00,
2013-01-28 23:50:00,49.1,48.6,29.98,WSW,238,0.0,5.0,98,0.00,CLR,SKC,0.08,WeatherDisplay:10.37,2013-01-29 04:50:00,